Burwash Airport
CYDB : now visible

Airfield :











YOU CAN JOIN US ON...

 
LOGIN :

Register | Disclaimer

   EN    FR    IT 

 









Legend :    VFR   Marginal VFR   IFR   Intensive IFR   Very Intensive IFR
Visi :
Ceiling :
>= 8 km
>= 3000ft
5 to 8 km
1000 to 3000 ft
1500m to 5 km
500 to 1000 ft
800 to 1500m
200 to 500 ft
< 800m
< 200 ft
Symbols :   Thunderstorms  Fog  Heavy snow  Heavy precipitations  Wind > 20 kt






- Airport Elevation : 2647 ft
- IATA code : YDB


CYDB - Burwash

CURRENT METAR :
  • 052000Z 00000KT 10SM OVC009 M20/M23 A2976 RMK ST8 VIS W 5 SLP169

EXPIRED METARs :
  • 051944Z 00000KT 10SM OVC009 M21/M23 A2977 RMK ST8 SLP171
  • 051900Z 00000KT 10SM -SN OVC009 M21/M24 A2977 RMK ST8 VIS W 5 PCPN VRY LGT SLP172
  • 051800Z 00000KT 10SM -SN BKN007 OVC025 M22/M24 A2978 RMK ST6SC2 VIS W 5 SLP179

TAF TAF CYDB
Valid from the 05 at 18:00 until the 06 at 06:00 UTC


051739Z 0518/0606 VRB03KT P6SM -SN OVC006
TEMPO 0518/0521 P6SM NSW SCT006 BKN015
FM052100 VRB03KT P6SM SCT012 BKN130
TEMPO 0521/0523 BKN008
FM052300 VRB03KT P6SM BKN120
TEMPO 0523/0605 P6SM -SN OVC060
FM060500 VRB03KT P6SM SCT070
TEMPO 0605/0606 BKN060 RMK NXT FCST BY 060000Z



MET'MAP, your aeronautical weather chart ! - Copyright ORBIFLY December 2007 - Disclaimer

ORBIFLY MET'MAP TEAM :

Programming & Development : Alexandra Zaïnal
Concept & original design : Baudouin d'Aumeries
Assistance for programming : Marc-Olivier Méhu
Technical & hardware support : Manuel Goepfert

Contact : metmap@orbifly.com




SOURCES & CREDITS :

   NOAA       Earth
Advisory